sensor_id;sensor_type;location;lat;lon;timestamp;pressure;altitude;pressure_sealevel;temperature;humidity
65276;BME280;51875;49.994;14.052;2023-05-24T00:00:43;98478.91;;;13.43;86.06
65276;BME280;51875;49.994;14.052;2023-05-24T00:02:13;98472.88;;;13.39;87.10
65276;BME280;51875;49.994;14.052;2023-05-24T00:03:29;98472.69;;;13.46;86.64
65276;BME280;51875;49.994;14.052;2023-05-24T00:04:48;98471.94;;;13.18;88.12
65276;BME280;51875;49.994;14.052;2023-05-24T00:06:04;98480.28;;;13.30;86.85
65276;BME280;51875;49.994;14.052;2023-05-24T00:07:21;98467.69;;;13.16;86.91
65276;BME280;51875;49.994;14.052;2023-05-24T00:08:37;98481.06;;;13.32;85.39
65276;BME280;51875;49.994;14.052;2023-05-24T00:09:52;98473.16;;;13.33;85.81
65276;BME280;51875;49.994;14.052;2023-05-24T00:11:08;98467.84;;;13.11;87.03
65276;BME280;51875;49.994;14.052;2023-05-24T00:12:25;98470.47;;;13.35;85.17
65276;BME280;51875;49.994;14.052;2023-05-24T00:13:41;98470.16;;;13.42;85.05
65276;BME280;51875;49.994;14.052;2023-05-24T00:14:57;98472.41;;;13.30;87.01
65276;BME280;51875;49.994;14.052;2023-05-24T00:16:12;98470.13;;;13.44;86.62
65276;BME280;51875;49.994;14.052;2023-05-24T00:17:28;98465.13;;;13.36;86.59
65276;BME280;51875;49.994;14.052;2023-05-24T00:18:44;98467.00;;;13.33;86.65
65276;BME280;51875;49.994;14.052;2023-05-24T00:20:01;98466.53;;;13.23;86.23
65276;BME280;51875;49.994;14.052;2023-05-24T00:21:16;98470.25;;;13.17;86.66
65276;BME280;51875;49.994;14.052;2023-05-24T00:22:32;98467.94;;;13.32;86.60
65276;BME280;51875;49.994;14.052;2023-05-24T00:23:47;98464.13;;;13.17;87.11
65276;BME280;51875;49.994;14.052;2023-05-24T00:25:06;98461.84;;;13.07;88.11
65276;BME280;51875;49.994;14.052;2023-05-24T00:26:22;98465.22;;;13.35;86.58
65276;BME280;51875;49.994;14.052;2023-05-24T00:27:37;98469.56;;;13.36;86.21
65276;BME280;51875;49.994;14.052;2023-05-24T00:28:53;98464.16;;;13.39;86.09
65276;BME280;51875;49.994;14.052;2023-05-24T00:30:09;98466.66;;;13.20;87.09
65276;BME280;51875;49.994;14.052;2023-05-24T00:31:25;98462.59;;;13.11;88.87
65276;BME280;51875;49.994;14.052;2023-05-24T00:32:40;98461.63;;;13.13;87.82
65276;BME280;51875;49.994;14.052;2023-05-24T00:33:56;98461.44;;;13.18;88.22
65276;BME280;51875;49.994;14.052;2023-05-24T00:35:11;98468.53;;;13.16;87.74
65276;BME280;51875;49.994;14.052;2023-05-24T00:36:27;98470.97;;;13.21;87.72
65276;BME280;51875;49.994;14.052;2023-05-24T00:37:43;98477.81;;;13.25;87.02
65276;BME280;51875;49.994;14.052;2023-05-24T00:38:59;98471.44;;;13.32;86.09
65276;BME280;51875;49.994;14.052;2023-05-24T00:40:16;98466.41;;;13.26;86.60
65276;BME280;51875;49.994;14.052;2023-05-24T00:41:32;98459.13;;;12.87;88.33
65276;BME280;51875;49.994;14.052;2023-05-24T00:42:47;98465.41;;;13.06;87.98
65276;BME280;51875;49.994;14.052;2023-05-24T00:44:03;98466.34;;;13.04;88.12
65276;BME280;51875;49.994;14.052;2023-05-24T00:45:19;98470.38;;;13.14;87.77
65276;BME280;51875;49.994;14.052;2023-05-24T00:46:34;98459.47;;;13.01;88.50
65276;BME280;51875;49.994;14.052;2023-05-24T00:47:50;98474.69;;;13.15;87.72
65276;BME280;51875;49.994;14.052;2023-05-24T00:49:06;98466.81;;;12.91;87.81
65276;BME280;51875;49.994;14.052;2023-05-24T00:50:21;98475.44;;;12.71;89.59
65276;BME280;51875;49.994;14.052;2023-05-24T00:51:39;98472.06;;;12.91;88.11
65276;BME280;51875;49.994;14.052;2023-05-24T00:52:55;98473.78;;;12.68;88.26
65276;BME280;51875;49.994;14.052;2023-05-24T00:54:12;98478.34;;;12.63;88.81
65276;BME280;51875;49.994;14.052;2023-05-24T00:55:29;98478.59;;;12.81;88.57
65276;BME280;51875;49.994;14.052;2023-05-24T00:56:47;98477.13;;;12.97;85.83
65276;BME280;51875;49.994;14.052;2023-05-24T00:58:02;98477.25;;;12.94;86.50
65276;BME280;51875;49.994;14.052;2023-05-24T00:59:18;98477.78;;;13.03;86.03
65276;BME280;51875;49.994;14.052;2023-05-24T01:00:34;98478.06;;;13.19;85.23
65276;BME280;51875;49.994;14.052;2023-05-24T01:01:50;98475.56;;;12.92;85.21
65276;BME280;51875;49.994;14.052;2023-05-24T01:03:06;98489.38;;;12.97;86.10
65276;BME280;51875;49.994;14.052;2023-05-24T01:04:23;98478.94;;;12.95;83.93
65276;BME280;51875;49.994;14.052;2023-05-24T01:05:38;98477.56;;;12.85;85.43
65276;BME280;51875;49.994;14.052;2023-05-24T01:11:42;98487.31;;;12.81;86.09
65276;BME280;51875;49.994;14.052;2023-05-24T01:13:14;98479.91;;;12.93;84.91
65276;BME280;51875;49.994;14.052;2023-05-24T01:16:11;98483.16;;;12.76;85.42
65276;BME280;51875;49.994;14.052;2023-05-24T01:17:37;98476.78;;;12.83;84.74
65276;BME280;51875;49.994;14.052;2023-05-24T01:19:00;98486.69;;;12.75;84.56
65276;BME280;51875;49.994;14.052;2023-05-24T01:20:17;98482.44;;;12.72;84.97
65276;BME280;51875;49.994;14.052;2023-05-24T01:21:58;98489.47;;;12.46;86.79
65276;BME280;51875;49.994;14.052;2023-05-24T01:28:07;98484.47;;;12.64;85.65
65276;BME280;51875;49.994;14.052;2023-05-24T01:29:23;98483.44;;;12.42;87.22
65276;BME280;51875;49.994;14.052;2023-05-24T01:30:41;98491.22;;;12.46;86.94
65276;BME280;51875;49.994;14.052;2023-05-24T01:31:56;98488.69;;;12.42;86.07
65276;BME280;51875;49.994;14.052;2023-05-24T01:33:12;98487.38;;;12.31;86.94
65276;BME280;51875;49.994;14.052;2023-05-24T01:34:28;98495.78;;;12.40;86.31
65276;BME280;51875;49.994;14.052;2023-05-24T01:35:44;98492.69;;;12.27;86.65
65276;BME280;51875;49.994;14.052;2023-05-24T01:37:00;98490.06;;;12.27;87.96
65276;BME280;51875;49.994;14.052;2023-05-24T01:38:15;98494.06;;;12.39;86.32
65276;BME280;51875;49.994;14.052;2023-05-24T01:39:31;98493.06;;;12.42;85.43
65276;BME280;51875;49.994;14.052;2023-05-24T01:40:49;98496.63;;;12.41;85.78
65276;BME280;51875;49.994;14.052;2023-05-24T01:43:47;98483.59;;;12.63;83.63
65276;BME280;51875;49.994;14.052;2023-05-24T01:47:19;98489.38;;;12.48;83.81
65276;BME280;51875;49.994;14.052;2023-05-24T01:48:56;98488.75;;;12.41;83.55
65276;BME280;51875;49.994;14.052;2023-05-24T01:52:11;98489.47;;;12.46;82.11
65276;BME280;51875;49.994;14.052;2023-05-24T01:53:33;98489.66;;;12.40;83.22
65276;BME280;51875;49.994;14.052;2023-05-24T01:54:51;98488.44;;;12.50;82.07
65276;BME280;51875;49.994;14.052;2023-05-24T01:56:07;98488.59;;;12.46;84.03
65276;BME280;51875;49.994;14.052;2023-05-24T01:57:25;98484.28;;;12.43;83.18
65276;BME280;51875;49.994;14.052;2023-05-24T01:58:43;98487.25;;;12.34;83.42
65276;BME280;51875;49.994;14.052;2023-05-24T02:00:00;98485.19;;;12.42;82.82
65276;BME280;51875;49.994;14.052;2023-05-24T02:01:17;98496.22;;;12.26;82.40
65276;BME280;51875;49.994;14.052;2023-05-24T02:02:33;98484.41;;;12.40;81.20
65276;BME280;51875;49.994;14.052;2023-05-24T02:03:49;98485.84;;;12.49;80.56
65276;BME280;51875;49.994;14.052;2023-05-24T02:05:05;98492.44;;;12.61;79.63
65276;BME280;51875;49.994;14.052;2023-05-24T02:06:21;98481.34;;;12.52;79.32
65276;BME280;51875;49.994;14.052;2023-05-24T02:07:36;98489.53;;;12.43;80.50
65276;BME280;51875;49.994;14.052;2023-05-24T02:08:52;98488.75;;;12.41;80.67
65276;BME280;51875;49.994;14.052;2023-05-24T02:10:08;98490.69;;;12.36;81.50
65276;BME280;51875;49.994;14.052;2023-05-24T02:11:24;98488.84;;;12.38;81.08
65276;BME280;51875;49.994;14.052;2023-05-24T02:12:40;98485.03;;;12.47;80.81
65276;BME280;51875;49.994;14.052;2023-05-24T02:13:55;98482.75;;;12.37;80.53
65276;BME280;51875;49.994;14.052;2023-05-24T02:15:11;98479.00;;;12.45;79.84
65276;BME280;51875;49.994;14.052;2023-05-24T02:16:28;98488.44;;;12.50;80.09
65276;BME280;51875;49.994;14.052;2023-05-24T02:17:44;98486.69;;;12.51;79.07
65276;BME280;51875;49.994;14.052;2023-05-24T02:19:00;98484.34;;;12.67;77.82
65276;BME280;51875;49.994;14.052;2023-05-24T02:20:17;98486.94;;;12.68;78.22
65276;BME280;51875;49.994;14.052;2023-05-24T02:21:33;98482.94;;;12.56;78.53
65276;BME280;51875;49.994;14.052;2023-05-24T02:22:49;98478.56;;;12.57;78.11
65276;BME280;51875;49.994;14.052;2023-05-24T02:24:05;98478.72;;;12.52;77.27
65276;BME280;51875;49.994;14.052;2023-05-24T02:25:22;98480.78;;;12.44;78.10
65276;BME280;51875;49.994;14.052;2023-05-24T02:26:37;98481.03;;;12.62;77.18
65276;BME280;51875;49.994;14.052;2023-05-24T02:27:53;98486.22;;;12.63;75.93
65276;BME280;51875;49.994;14.052;2023-05-24T02:29:09;98477.97;;;12.49;76.91
65276;BME280;51875;49.994;14.052;2023-05-24T02:30:25;98474.91;;;12.61;75.79
65276;BME280;51875;49.994;14.052;2023-05-24T02:31:40;98485.06;;;12.72;74.35
65276;BME280;51875;49.994;14.052;2023-05-24T02:32:56;98478.78;;;12.51;75.83
65276;BME280;51875;49.994;14.052;2023-05-24T02:34:11;98483.88;;;12.30;77.72
65276;BME280;51875;49.994;14.052;2023-05-24T02:35:27;98479.09;;;12.41;75.59
65276;BME280;51875;49.994;14.052;2023-05-24T02:36:42;98487.09;;;12.38;76.23
65276;BME280;51875;49.994;14.052;2023-05-24T02:38:00;98490.38;;;12.45;76.22
65276;BME280;51875;49.994;14.052;2023-05-24T02:39:16;98485.19;;;12.42;77.54
65276;BME280;51875;49.994;14.052;2023-05-24T02:40:32;98486.06;;;12.17;78.88
65276;BME280;51875;49.994;14.052;2023-05-24T02:41:48;98489.91;;;12.07;77.50
65276;BME280;51875;49.994;14.052;2023-05-24T02:43:03;98486.97;;;12.16;76.50
65276;BME280;51875;49.994;14.052;2023-05-24T02:44:18;98488.34;;;12.26;75.84
65276;BME280;51875;49.994;14.052;2023-05-24T02:45:34;98494.47;;;12.27;75.90
65276;BME280;51875;49.994;14.052;2023-05-24T02:46:51;98490.00;;;12.04;77.55
65276;BME280;51875;49.994;14.052;2023-05-24T02:48:07;98496.28;;;11.98;77.10
65276;BME280;51875;49.994;14.052;2023-05-24T02:49:23;98494.56;;;11.97;77.92
65276;BME280;51875;49.994;14.052;2023-05-24T02:50:38;98490.94;;;12.01;78.10
65276;BME280;51875;49.994;14.052;2023-05-24T02:51:53;98494.34;;;12.05;78.53
65276;BME280;51875;49.994;14.052;2023-05-24T02:53:09;98496.28;;;11.98;77.88
65276;BME280;51875;49.994;14.052;2023-05-24T02:54:26;98491.97;;;11.68;80.44
65276;BME280;51875;49.994;14.052;2023-05-24T02:55:41;98493.41;;;11.79;80.36
65276;BME280;51875;49.994;14.052;2023-05-24T02:56:58;98494.81;;;11.89;79.05
65276;BME280;51875;49.994;14.052;2023-05-24T02:58:14;98495.91;;;11.82;79.94
65276;BME280;51875;49.994;14.052;2023-05-24T02:59:31;98498.47;;;12.12;77.36
65276;BME280;51875;49.994;14.052;2023-05-24T03:00:48;98501.34;;;12.04;77.75
65276;BME280;51875;49.994;14.052;2023-05-24T03:02:03;98496.09;;;12.04;77.14
65276;BME280;51875;49.994;14.052;2023-05-24T03:03:19;98499.63;;;12.03;79.32
65276;BME280;51875;49.994;14.052;2023-05-24T03:04:35;98497.81;;;12.05;76.89
65276;BME280;51875;49.994;14.052;2023-05-24T03:05:50;98502.53;;;12.21;76.35
65276;BME280;51875;49.994;14.052;2023-05-24T03:07:06;98503.41;;;12.21;77.40
65276;BME280;51875;49.994;14.052;2023-05-24T03:08:21;98501.72;;;12.20;78.26
65276;BME280;51875;49.994;14.052;2023-05-24T03:09:37;98505.53;;;12.37;78.42
65276;BME280;51875;49.994;14.052;2023-05-24T03:10:52;98501.28;;;12.33;77.68
65276;BME280;51875;49.994;14.052;2023-05-24T03:12:08;98506.84;;;12.23;77.88
65276;BME280;51875;49.994;14.052;2023-05-24T03:13:24;98510.16;;;12.28;78.13
65276;BME280;51875;49.994;14.052;2023-05-24T03:14:39;98507.19;;;12.39;76.62
65276;BME280;51875;49.994;14.052;2023-05-24T03:15:55;98513.09;;;12.46;76.03
65276;BME280;51875;49.994;14.052;2023-05-24T03:17:10;98507.03;;;12.44;77.08
65276;BME280;51875;49.994;14.052;2023-05-24T03:18:26;98507.91;;;12.43;76.68
65276;BME280;51875;49.994;14.052;2023-05-24T03:19:42;98506.97;;;12.20;78.48
65276;BME280;51875;49.994;14.052;2023-05-24T03:20:57;98509.63;;;12.19;79.32
65276;BME280;51875;49.994;14.052;2023-05-24T03:22:13;98508.41;;;12.29;79.14
65276;BME280;51875;49.994;14.052;2023-05-24T03:23:28;98504.34;;;12.20;78.97
65276;BME280;51875;49.994;14.052;2023-05-24T03:24:44;98508.31;;;12.05;80.36
65276;BME280;51875;49.994;14.052;2023-05-24T03:26:00;98509.94;;;12.09;79.40
65276;BME280;51875;49.994;14.052;2023-05-24T03:27:16;98510.78;;;12.10;79.42
65276;BME280;51875;49.994;14.052;2023-05-24T03:28:32;98509.06;;;12.09;79.70
65276;BME280;51875;49.994;14.052;2023-05-24T03:29:48;98510.50;;;11.91;80.50
65276;BME280;51875;49.994;14.052;2023-05-24T03:31:03;98513.56;;;12.05;78.97
65276;BME280;51875;49.994;14.052;2023-05-24T03:32:19;98512.59;;;12.08;77.56
65276;BME280;51875;49.994;14.052;2023-05-24T03:33:34;98521.28;;;12.10;77.21
65276;BME280;51875;49.994;14.052;2023-05-24T03:34:50;98520.13;;;12.19;79.22
65276;BME280;51875;49.994;14.052;2023-05-24T03:36:07;98524.59;;;12.15;81.17
65276;BME280;51875;49.994;14.052;2023-05-24T03:37:22;98517.97;;;12.05;82.46
65276;BME280;51875;49.994;14.052;2023-05-24T03:38:38;98524.03;;;12.07;82.55
65276;BME280;51875;49.994;14.052;2023-05-24T03:39:53;98521.66;;;12.26;80.98
65276;BME280;51875;49.994;14.052;2023-05-24T03:41:09;98523.41;;;12.25;81.85
65276;BME280;51875;49.994;14.052;2023-05-24T03:42:25;98517.09;;;12.04;81.84
65276;BME280;51875;49.994;14.052;2023-05-24T03:43:40;98524.47;;;12.20;80.49
65276;BME280;51875;49.994;14.052;2023-05-24T03:44:56;98517.88;;;12.33;79.93
65276;BME280;51875;49.994;14.052;2023-05-24T03:46:11;98524.97;;;12.31;78.97
65276;BME280;51875;49.994;14.052;2023-05-24T03:47:27;98521.41;;;12.32;79.02
65276;BME280;51875;49.994;14.052;2023-05-24T03:48:42;98530.34;;;12.26;79.13
65276;BME280;51875;49.994;14.052;2023-05-24T03:49:58;98527.59;;;12.31;78.35
65276;BME280;51875;49.994;14.052;2023-05-24T03:51:14;98527.44;;;12.36;78.73
65276;BME280;51875;49.994;14.052;2023-05-24T03:52:29;98525.50;;;12.41;77.98
65276;BME280;51875;49.994;14.052;2023-05-24T03:53:45;98528.75;;;12.22;79.45
65276;BME280;51875;49.994;14.052;2023-05-24T03:55:00;98526.13;;;12.22;78.29
65276;BME280;51875;49.994;14.052;2023-05-24T03:56:16;98530.66;;;12.44;78.24
65276;BME280;51875;49.994;14.052;2023-05-24T03:57:31;98528.09;;;12.42;78.12
65276;BME280;51875;49.994;14.052;2023-05-24T03:58:47;98532.69;;;12.36;78.70
65276;BME280;51875;49.994;14.052;2023-05-24T04:00:03;98528.94;;;12.43;79.30
65276;BME280;51875;49.994;14.052;2023-05-24T04:01:21;98536.75;;;12.45;79.46
65276;BME280;51875;49.994;14.052;2023-05-24T04:02:36;98532.16;;;12.51;77.96
65276;BME280;51875;49.994;14.052;2023-05-24T04:03:52;98528.84;;;12.46;79.25
65276;BME280;51875;49.994;14.052;2023-05-24T04:05:12;98534.69;;;12.27;78.94
65276;BME280;51875;49.994;14.052;2023-05-24T04:06:28;98536.47;;;12.27;80.34
65276;BME280;51875;49.994;14.052;2023-05-24T04:07:44;98534.69;;;12.27;80.36
65276;BME280;51875;49.994;14.052;2023-05-24T04:09:00;98531.88;;;12.34;80.76
65276;BME280;51875;49.994;14.052;2023-05-24T04:10:17;98532.03;;;12.29;81.01
65276;BME280;51875;49.994;14.052;2023-05-24T04:11:32;98534.19;;;12.43;80.00
65276;BME280;51875;49.994;14.052;2023-05-24T04:12:48;98539.00;;;12.30;80.79
65276;BME280;51875;49.994;14.052;2023-05-24T04:14:04;98545.59;;;12.42;79.12
65276;BME280;51875;49.994;14.052;2023-05-24T04:15:19;98541.47;;;12.60;78.13
65276;BME280;51875;49.994;14.052;2023-05-24T04:16:35;98544.59;;;12.46;79.98
65276;BME280;51875;49.994;14.052;2023-05-24T04:17:53;98541.63;;;12.55;79.33
65276;BME280;51875;49.994;14.052;2023-05-24T04:19:10;98539.94;;;12.27;81.02
65276;BME280;51875;49.994;14.052;2023-05-24T04:20:26;98540.25;;;12.45;79.06
65276;BME280;51875;49.994;14.052;2023-05-24T04:21:44;98545.44;;;12.47;76.30
65276;BME280;51875;49.994;14.052;2023-05-24T04:22:59;98545.19;;;12.54;75.80
65276;BME280;51875;49.994;14.052;2023-05-24T04:24:15;98540.81;;;12.28;78.46
65276;BME280;51875;49.994;14.052;2023-05-24T04:25:30;98542.44;;;12.32;77.60
65276;BME280;51875;49.994;14.052;2023-05-24T04:26:47;98537.28;;;12.29;78.29
65276;BME280;51875;49.994;14.052;2023-05-24T04:28:03;98544.63;;;12.45;78.60
65276;BME280;51875;49.994;14.052;2023-05-24T04:29:18;98543.81;;;12.17;79.20
65276;BME280;51875;49.994;14.052;2023-05-24T04:30:34;98540.41;;;12.13;79.79
65276;BME280;51875;49.994;14.052;2023-05-24T04:31:51;98539.50;;;12.14;79.79
65276;BME280;51875;49.994;14.052;2023-05-24T04:33:06;98545.91;;;12.33;77.27
65276;BME280;51875;49.994;14.052;2023-05-24T04:34:22;98540.47;;;12.12;79.70
65276;BME280;51875;49.994;14.052;2023-05-24T04:35:38;98539.56;;;12.13;78.81
65276;BME280;51875;49.994;14.052;2023-05-24T04:36:55;98545.41;;;12.21;79.55
65276;BME280;51875;49.994;14.052;2023-05-24T04:38:10;98545.13;;;12.04;76.35
65276;BME280;51875;49.994;14.052;2023-05-24T04:39:28;98551.06;;;12.09;77.57
65276;BME280;51875;49.994;14.052;2023-05-24T04:40:44;98545.47;;;12.20;76.03
65276;BME280;51875;49.994;14.052;2023-05-24T04:41:59;98550.25;;;12.07;77.31
65276;BME280;51875;49.994;14.052;2023-05-24T04:43:15;98556.03;;;12.18;77.69
65276;BME280;51875;49.994;14.052;2023-05-24T04:44:31;98551.69;;;12.17;77.45
65276;BME280;51875;49.994;14.052;2023-05-24T04:45:46;98555.25;;;12.14;73.81
65276;BME280;51875;49.994;14.052;2023-05-24T04:47:02;98562.25;;;12.14;75.83
65276;BME280;51875;49.994;14.052;2023-05-24T04:48:18;98560.00;;;12.03;77.20
65276;BME280;51875;49.994;14.052;2023-05-24T04:49:35;98557.53;;;11.97;77.83
65276;BME280;51875;49.994;14.052;2023-05-24T04:50:51;98558.69;;;11.88;78.63
65276;BME280;51875;49.994;14.052;2023-05-24T04:52:06;98556.50;;;11.74;79.26
65276;BME280;51875;49.994;14.052;2023-05-24T04:53:22;98555.72;;;11.70;80.15
65276;BME280;51875;49.994;14.052;2023-05-24T04:54:38;98558.63;;;11.61;80.29
65276;BME280;51875;49.994;14.052;2023-05-24T04:55:54;98561.31;;;11.59;80.23
65276;BME280;51875;49.994;14.052;2023-05-24T04:57:09;98562.06;;;11.92;79.82
65276;BME280;51875;49.994;14.052;2023-05-24T04:58:25;98560.59;;;11.83;79.33
65276;BME280;51875;49.994;14.052;2023-05-24T04:59:41;98567.38;;;11.90;76.79
65276;BME280;51875;49.994;14.052;2023-05-24T05:00:56;98563.41;;;12.05;78.45
65276;BME280;51875;49.994;14.052;2023-05-24T05:02:12;98567.03;;;12.03;77.18
65276;BME280;51875;49.994;14.052;2023-05-24T05:03:27;98563.31;;;11.80;77.45
65276;BME280;51875;49.994;14.052;2023-05-24T05:04:43;98570.13;;;11.85;78.04
65276;BME280;51875;49.994;14.052;2023-05-24T05:05:59;98562.50;;;12.06;78.54
65276;BME280;51875;49.994;14.052;2023-05-24T05:07:14;98563.50;;;12.04;77.55
65276;BME280;51875;49.994;14.052;2023-05-24T05:08:30;98562.84;;;11.67;79.77
65276;BME280;51875;49.994;14.052;2023-05-24T05:09:45;98560.81;;;11.47;79.12
65276;BME280;51875;49.994;14.052;2023-05-24T05:11:02;98572.59;;;11.62;78.09
65276;BME280;51875;49.994;14.052;2023-05-24T05:12:17;98567.19;;;11.68;78.91
65276;BME280;51875;49.994;14.052;2023-05-24T05:13:33;98566.97;;;11.74;78.59
65276;BME280;51875;49.994;14.052;2023-05-24T05:14:48;98563.69;;;11.67;77.46
65276;BME280;51875;49.994;14.052;2023-05-24T05:16:04;98567.41;;;11.60;79.85
65276;BME280;51875;49.994;14.052;2023-05-24T05:17:20;98569.88;;;11.65;78.05
65276;BME280;51875;49.994;14.052;2023-05-24T05:18:36;98567.13;;;11.69;78.92
65276;BME280;51875;49.994;14.052;2023-05-24T05:19:51;98567.78;;;11.48;80.38
65276;BME280;51875;49.994;14.052;2023-05-24T05:21:07;98573.72;;;11.53;78.27
65276;BME280;51875;49.994;14.052;2023-05-24T05:22:23;98571.19;;;11.80;79.28
65276;BME280;51875;49.994;14.052;2023-05-24T05:23:38;98578.16;;;11.81;76.98
65276;BME280;51875;49.994;14.052;2023-05-24T05:24:54;98577.75;;;11.93;76.75
65276;BME280;51875;49.994;14.052;2023-05-24T05:26:09;98572.03;;;11.80;76.40
65276;BME280;51875;49.994;14.052;2023-05-24T05:27:26;98579.03;;;11.81;76.77
65276;BME280;51875;49.994;14.052;2023-05-24T05:28:41;98577.06;;;11.88;75.94
65276;BME280;51875;49.994;14.052;2023-05-24T05:29:57;98580.25;;;11.98;75.41
65276;BME280;51875;49.994;14.052;2023-05-24T05:31:12;98575.38;;;12.14;76.79
65276;BME280;51875;49.994;14.052;2023-05-24T05:32:28;98577.56;;;11.99;76.69
65276;BME280;51875;49.994;14.052;2023-05-24T05:33:44;98579.47;;;11.94;76.64
65276;BME280;51875;49.994;14.052;2023-05-24T05:34:59;98583.72;;;11.98;78.20
65276;BME280;51875;49.994;14.052;2023-05-24T05:36:15;98582.75;;;12.03;76.16
65276;BME280;51875;49.994;14.052;2023-05-24T05:37:31;98587.56;;;11.88;79.77
65276;BME280;51875;49.994;14.052;2023-05-24T05:38:46;98584.53;;;12.00;77.77
65276;BME280;51875;49.994;14.052;2023-05-24T05:40:02;98586.84;;;12.11;78.06
65276;BME280;51875;49.994;14.052;2023-05-24T05:41:18;98588.75;;;12.06;76.37
65276;BME280;51875;49.994;14.052;2023-05-24T05:42:34;98585.44;;;12.28;74.83
65276;BME280;51875;49.994;14.052;2023-05-24T05:43:50;98591.50;;;12.30;75.94
65276;BME280;51875;49.994;14.052;2023-05-24T05:45:06;98588.56;;;12.12;75.82
65276;BME280;51875;49.994;14.052;2023-05-24T05:46:21;98599.84;;;12.16;77.30
65276;BME280;51875;49.994;14.052;2023-05-24T05:47:37;98595.53;;;12.13;75.82
65276;BME280;51875;49.994;14.052;2023-05-24T05:48:52;98589.41;;;12.13;76.49
65276;BME280;51875;49.994;14.052;2023-05-24T05:50:08;98592.38;;;12.02;77.39
65276;BME280;51875;49.994;14.052;2023-05-24T05:51:24;98584.53;;;12.00;77.95
65276;BME280;51875;49.994;14.052;2023-05-24T05:52:39;98586.78;;;12.13;76.35
65276;BME280;51875;49.994;14.052;2023-05-24T05:53:56;98592.03;;;12.13;77.65
65276;BME280;51875;49.994;14.052;2023-05-24T05:55:12;98592.78;;;12.18;77.26
65276;BME280;51875;49.994;14.052;2023-05-24T05:56:28;98591.31;;;12.09;76.21
65276;BME280;51875;49.994;14.052;2023-05-24T05:57:43;98595.19;;;11.96;78.43
65276;BME280;51875;49.994;14.052;2023-05-24T05:58:59;98591.47;;;12.32;77.29
65276;BME280;51875;49.994;14.052;2023-05-24T06:00:15;98599.91;;;12.13;77.20
65276;BME280;51875;49.994;14.052;2023-05-24T06:01:30;98593.75;;;12.14;78.76
65276;BME280;51875;49.994;14.052;2023-05-24T06:02:46;98591.00;;;12.19;78.11
65276;BME280;51875;49.994;14.052;2023-05-24T06:04:02;98594.66;;;12.13;79.54
65276;BME280;51875;49.994;14.052;2023-05-24T06:05:18;98601.34;;;12.23;78.05
65276;BME280;51875;49.994;14.052;2023-05-24T06:06:34;98598.25;;;12.10;77.76
65276;BME280;51875;49.994;14.052;2023-05-24T06:07:49;98595.44;;;11.88;78.93
65276;BME280;51875;49.994;14.052;2023-05-24T06:09:05;98589.44;;;11.83;78.82
65276;BME280;51875;49.994;14.052;2023-05-24T06:10:21;98601.31;;;11.66;77.44
65276;BME280;51875;49.994;14.052;2023-05-24T06:11:37;98602.03;;;11.71;77.83
65276;BME280;51875;49.994;14.052;2023-05-24T06:12:53;98601.13;;;12.03;76.72
65276;BME280;51875;49.994;14.052;2023-05-24T06:14:10;98604.72;;;11.98;77.44
65276;BME280;51875;49.994;14.052;2023-05-24T06:15:26;98603.00;;;11.97;77.44
65276;BME280;51875;49.994;14.052;2023-05-24T06:16:43;98610.06;;;11.95;78.28
65276;BME280;51875;49.994;14.052;2023-05-24T06:18:00;98607.34;;;11.98;79.30
65276;BME280;51875;49.994;14.052;2023-05-24T06:19:19;98608.41;;;12.21;77.64
65276;BME280;51875;49.994;14.052;2023-05-24T06:20:35;98607.44;;;11.95;78.29
65276;BME280;51875;49.994;14.052;2023-05-24T06:21:51;98611.09;;;11.90;78.68
65276;BME280;51875;49.994;14.052;2023-05-24T06:23:06;98614.28;;;11.99;77.43
65276;BME280;51875;49.994;14.052;2023-05-24T06:24:22;98615.91;;;12.05;77.93
65276;BME280;51875;49.994;14.052;2023-05-24T06:25:38;98616.25;;;11.93;78.20
65276;BME280;51875;49.994;14.052;2023-05-24T06:26:54;98615.34;;;11.94;77.13
65276;BME280;51875;49.994;14.052;2023-05-24T06:28:10;98618.25;;;12.14;75.68
65276;BME280;51875;49.994;14.052;2023-05-24T06:29:26;98614.00;;;12.10;75.12
65276;BME280;51875;49.994;14.052;2023-05-24T06:30:41;98611.56;;;12.33;75.63
65276;BME280;51875;49.994;14.052;2023-05-24T06:31:56;98616.06;;;12.27;76.75
65276;BME280;51875;49.994;14.052;2023-05-24T06:33:12;98616.81;;;12.33;78.55
65276;BME280;51875;49.994;14.052;2023-05-24T06:34:28;98617.31;;;12.17;77.85
65276;BME280;51875;49.994;14.052;2023-05-24T06:35:44;98623.88;;;12.31;75.50
65276;BME280;51875;49.994;14.052;2023-05-24T06:37:00;98624.06;;;12.24;75.33
65276;BME280;51875;49.994;14.052;2023-05-24T06:38:16;98625.53;;;12.33;75.99
65276;BME280;51875;49.994;14.052;2023-05-24T06:39:32;98616.81;;;12.04;77.38
65276;BME280;51875;49.994;14.052;2023-05-24T06:40:48;98623.81;;;12.32;74.56
65276;BME280;51875;49.994;14.052;2023-05-24T06:42:03;98618.13;;;12.46;76.28
65276;BME280;51875;49.994;14.052;2023-05-24T06:43:19;98620.13;;;12.65;75.15
65276;BME280;51875;49.994;14.052;2023-05-24T06:44:35;98626.94;;;12.43;75.48
65276;BME280;51875;49.994;14.052;2023-05-24T06:45:50;98626.66;;;12.26;74.03
65276;BME280;51875;49.994;14.052;2023-05-24T06:47:06;98627.41;;;12.29;75.38
65276;BME280;51875;49.994;14.052;2023-05-24T06:48:23;98626.38;;;12.07;75.81
65276;BME280;51875;49.994;14.052;2023-05-24T06:49:39;98617.94;;;11.95;78.81
65276;BME280;51875;49.994;14.052;2023-05-24T06:50:54;98629.31;;;12.24;75.92
65276;BME280;51875;49.994;14.052;2023-05-24T06:52:10;98628.81;;;12.40;76.59
65276;BME280;51875;49.994;14.052;2023-05-24T06:53:26;98632.84;;;12.23;73.94
65276;BME280;51875;49.994;14.052;2023-05-24T06:54:41;98635.00;;;12.10;75.18
65276;BME280;51875;49.994;14.052;2023-05-24T06:55:57;98633.78;;;11.92;76.21